sensor_id;sensor_type;location;lat;lon;timestamp;temperature;humidity
36552;DHT22;22559;54.176;12.102;2023-04-25T00:01:05;8.70;99.90
36552;DHT22;22559;54.176;12.102;2023-04-25T00:03:32;8.80;99.90
36552;DHT22;22559;54.176;12.102;2023-04-25T00:05:58;8.80;99.90
36552;DHT22;22559;54.176;12.102;2023-04-25T00:08:29;8.90;99.90
36552;DHT22;22559;54.176;12.102;2023-04-25T00:10:55;8.90;99.90
36552;DHT22;22559;54.176;12.102;2023-04-25T00:13:21;9.00;99.90
36552;DHT22;22559;54.176;12.102;2023-04-25T00:15:47;9.00;99.90
36552;DHT22;22559;54.176;12.102;2023-04-25T00:18:14;9.00;99.90
36552;DHT22;22559;54.176;12.102;2023-04-25T00:20:39;9.00;99.90
36552;DHT22;22559;54.176;12.102;2023-04-25T00:23:05;9.00;99.90
36552;DHT22;22559;54.176;12.102;2023-04-25T00:25:31;9.00;99.90
36552;DHT22;22559;54.176;12.102;2023-04-25T00:27:57;9.00;99.90
36552;DHT22;22559;54.176;12.102;2023-04-25T00:30:22;9.00;99.90
36552;DHT22;22559;54.176;12.102;2023-04-25T00:32:48;9.00;99.90
36552;DHT22;22559;54.176;12.102;2023-04-25T00:35:14;9.00;99.90
36552;DHT22;22559;54.176;12.102;2023-04-25T00:37:40;9.00;99.90
36552;DHT22;22559;54.176;12.102;2023-04-25T00:40:06;8.90;99.90
36552;DHT22;22559;54.176;12.102;2023-04-25T00:42:33;8.90;99.90
36552;DHT22;22559;54.176;12.102;2023-04-25T00:45:00;8.90;99.90
36552;DHT22;22559;54.176;12.102;2023-04-25T00:47:26;8.80;99.90
36552;DHT22;22559;54.176;12.102;2023-04-25T00:49:53;8.80;99.90
36552;DHT22;22559;54.176;12.102;2023-04-25T00:52:19;8.80;99.90
36552;DHT22;22559;54.176;12.102;2023-04-25T00:54:45;8.80;99.90
36552;DHT22;22559;54.176;12.102;2023-04-25T00:57:11;8.80;99.90
36552;DHT22;22559;54.176;12.102;2023-04-25T00:59:38;8.80;99.90
36552;DHT22;22559;54.176;12.102;2023-04-25T01:02:04;8.80;99.90
36552;DHT22;22559;54.176;12.102;2023-04-25T01:04:30;8.80;99.90
36552;DHT22;22559;54.176;12.102;2023-04-25T01:06:56;8.90;99.90
36552;DHT22;22559;54.176;12.102;2023-04-25T01:09:23;8.90;99.90
36552;DHT22;22559;54.176;12.102;2023-04-25T01:11:49;8.80;99.90
36552;DHT22;22559;54.176;12.102;2023-04-25T01:14:15;8.90;99.90
36552;DHT22;22559;54.176;12.102;2023-04-25T01:16:41;8.80;99.90
36552;DHT22;22559;54.176;12.102;2023-04-25T01:19:09;8.80;99.90
36552;DHT22;22559;54.176;12.102;2023-04-25T01:21:38;8.90;99.90
36552;DHT22;22559;54.176;12.102;2023-04-25T01:24:04;8.80;99.90
36552;DHT22;22559;54.176;12.102;2023-04-25T01:26:30;8.80;99.90
36552;DHT22;22559;54.176;12.102;2023-04-25T01:32:18;8.80;99.90
36552;DHT22;22559;54.176;12.102;2023-04-25T01:34:45;8.80;99.90
36552;DHT22;22559;54.176;12.102;2023-04-25T01:37:11;8.80;99.90
36552;DHT22;22559;54.176;12.102;2023-04-25T01:39:37;8.80;99.90
36552;DHT22;22559;54.176;12.102;2023-04-25T01:42:02;8.80;99.90
36552;DHT22;22559;54.176;12.102;2023-04-25T01:44:28;8.80;99.90
36552;DHT22;22559;54.176;12.102;2023-04-25T01:46:54;8.80;99.90
36552;DHT22;22559;54.176;12.102;2023-04-25T01:49:20;8.80;99.90
36552;DHT22;22559;54.176;12.102;2023-04-25T01:51:46;8.90;99.90
36552;DHT22;22559;54.176;12.102;2023-04-25T01:54:12;8.90;99.90
36552;DHT22;22559;54.176;12.102;2023-04-25T01:56:38;8.90;99.90
36552;DHT22;22559;54.176;12.102;2023-04-25T01:59:05;8.80;99.90
36552;DHT22;22559;54.176;12.102;2023-04-25T02:01:31;8.80;99.90
36552;DHT22;22559;54.176;12.102;2023-04-25T02:03:56;8.80;99.90
36552;DHT22;22559;54.176;12.102;2023-04-25T02:06:22;8.80;99.90
36552;DHT22;22559;54.176;12.102;2023-04-25T02:08:48;8.80;99.90
36552;DHT22;22559;54.176;12.102;2023-04-25T02:14:35;8.80;99.90
36552;DHT22;22559;54.176;12.102;2023-04-25T02:17:00;8.80;99.90
36552;DHT22;22559;54.176;12.102;2023-04-25T02:19:26;8.80;99.90
36552;DHT22;22559;54.176;12.102;2023-04-25T02:21:51;8.80;99.90
36552;DHT22;22559;54.176;12.102;2023-04-25T02:24:17;8.80;99.90
36552;DHT22;22559;54.176;12.102;2023-04-25T02:26:43;8.80;99.90
36552;DHT22;22559;54.176;12.102;2023-04-25T02:29:09;8.70;99.90
36552;DHT22;22559;54.176;12.102;2023-04-25T02:31:35;8.70;99.90
36552;DHT22;22559;54.176;12.102;2023-04-25T02:34:01;8.70;99.90
36552;DHT22;22559;54.176;12.102;2023-04-25T02:36:26;8.70;99.90
36552;DHT22;22559;54.176;12.102;2023-04-25T02:38:53;8.70;99.90
36552;DHT22;22559;54.176;12.102;2023-04-25T02:41:18;8.70;99.90
36552;DHT22;22559;54.176;12.102;2023-04-25T02:43:44;8.70;99.90
36552;DHT22;22559;54.176;12.102;2023-04-25T02:46:09;8.70;99.90
36552;DHT22;22559;54.176;12.102;2023-04-25T02:48:35;8.60;99.90
36552;DHT22;22559;54.176;12.102;2023-04-25T02:51:00;8.60;99.90
36552;DHT22;22559;54.176;12.102;2023-04-25T02:53:26;8.60;99.90
36552;DHT22;22559;54.176;12.102;2023-04-25T02:55:52;8.60;99.90
36552;DHT22;22559;54.176;12.102;2023-04-25T02:58:18;8.50;99.90
36552;DHT22;22559;54.176;12.102;2023-04-25T03:00:43;8.50;99.90
36552;DHT22;22559;54.176;12.102;2023-04-25T03:03:09;8.50;99.90
36552;DHT22;22559;54.176;12.102;2023-04-25T03:05:35;8.40;99.90
36552;DHT22;22559;54.176;12.102;2023-04-25T03:08:01;8.30;99.90
36552;DHT22;22559;54.176;12.102;2023-04-25T03:10:26;8.30;99.90
36552;DHT22;22559;54.176;12.102;2023-04-25T03:12:52;8.30;99.90
36552;DHT22;22559;54.176;12.102;2023-04-25T03:15:17;8.30;99.90
36552;DHT22;22559;54.176;12.102;2023-04-25T03:17:44;8.30;99.90
36552;DHT22;22559;54.176;12.102;2023-04-25T03:20:10;8.30;99.90
36552;DHT22;22559;54.176;12.102;2023-04-25T03:22:36;8.30;99.90
36552;DHT22;22559;54.176;12.102;2023-04-25T03:25:02;8.30;99.90
36552;DHT22;22559;54.176;12.102;2023-04-25T03:27:28;8.30;99.90
36552;DHT22;22559;54.176;12.102;2023-04-25T03:29:53;8.30;99.90
36552;DHT22;22559;54.176;12.102;2023-04-25T03:32:21;8.30;99.90
36552;DHT22;22559;54.176;12.102;2023-04-25T03:34:47;8.30;99.90
36552;DHT22;22559;54.176;12.102;2023-04-25T03:37:12;8.20;99.90
36552;DHT22;22559;54.176;12.102;2023-04-25T03:39:38;8.30;99.90
36552;DHT22;22559;54.176;12.102;2023-04-25T03:42:03;8.30;99.90
36552;DHT22;22559;54.176;12.102;2023-04-25T03:44:29;8.30;99.90
36552;DHT22;22559;54.176;12.102;2023-04-25T03:46:55;8.40;99.90
36552;DHT22;22559;54.176;12.102;2023-04-25T03:49:20;8.40;99.90
36552;DHT22;22559;54.176;12.102;2023-04-25T03:51:46;8.40;99.90
36552;DHT22;22559;54.176;12.102;2023-04-25T03:54:12;8.40;99.90
36552;DHT22;22559;54.176;12.102;2023-04-25T03:56:37;8.40;99.90
36552;DHT22;22559;54.176;12.102;2023-04-25T03:59:03;8.30;99.90
36552;DHT22;22559;54.176;12.102;2023-04-25T04:01:29;8.30;99.90
36552;DHT22;22559;54.176;12.102;2023-04-25T04:03:54;8.20;99.90
36552;DHT22;22559;54.176;12.102;2023-04-25T04:06:20;8.20;99.90
36552;DHT22;22559;54.176;12.102;2023-04-25T04:08:46;8.10;99.90
36552;DHT22;22559;54.176;12.102;2023-04-25T04:11:12;8.10;99.90
36552;DHT22;22559;54.176;12.102;2023-04-25T04:13:38;8.00;99.90
36552;DHT22;22559;54.176;12.102;2023-04-25T04:16:04;8.00;99.90
36552;DHT22;22559;54.176;12.102;2023-04-25T04:18:30;8.00;99.90
36552;DHT22;22559;54.176;12.102;2023-04-25T04:20:56;7.90;99.90
36552;DHT22;22559;54.176;12.102;2023-04-25T04:23:23;7.90;99.90
36552;DHT22;22559;54.176;12.102;2023-04-25T04:25:49;7.90;99.90
36552;DHT22;22559;54.176;12.102;2023-04-25T04:28:15;7.90;99.90
36552;DHT22;22559;54.176;12.102;2023-04-25T04:30:41;7.80;99.90
36552;DHT22;22559;54.176;12.102;2023-04-25T04:33:08;7.80;99.90
36552;DHT22;22559;54.176;12.102;2023-04-25T04:35:34;7.80;99.90
36552;DHT22;22559;54.176;12.102;2023-04-25T04:38:00;7.70;99.90
36552;DHT22;22559;54.176;12.102;2023-04-25T04:40:26;7.70;99.90
36552;DHT22;22559;54.176;12.102;2023-04-25T04:42:51;7.70;99.90
36552;DHT22;22559;54.176;12.102;2023-04-25T04:45:18;7.70;99.90
36552;DHT22;22559;54.176;12.102;2023-04-25T04:47:44;7.70;99.90
36552;DHT22;22559;54.176;12.102;2023-04-25T04:50:10;7.60;99.90
36552;DHT22;22559;54.176;12.102;2023-04-25T04:52:36;7.50;99.90
36552;DHT22;22559;54.176;12.102;2023-04-25T04:55:04;7.50;99.90
36552;DHT22;22559;54.176;12.102;2023-04-25T04:57:30;7.50;99.90
36552;DHT22;22559;54.176;12.102;2023-04-25T04:59:56;7.50;99.90
36552;DHT22;22559;54.176;12.102;2023-04-25T05:02:22;7.50;99.90
36552;DHT22;22559;54.176;12.102;2023-04-25T05:04:47;7.40;99.90
36552;DHT22;22559;54.176;12.102;2023-04-25T05:07:13;7.40;99.90
36552;DHT22;22559;54.176;12.102;2023-04-25T05:09:39;7.40;99.90
36552;DHT22;22559;54.176;12.102;2023-04-25T05:12:05;7.40;99.90
36552;DHT22;22559;54.176;12.102;2023-04-25T05:14:31;7.40;99.90
36552;DHT22;22559;54.176;12.102;2023-04-25T05:16:56;7.40;99.90
36552;DHT22;22559;54.176;12.102;2023-04-25T05:19:22;7.50;99.90
36552;DHT22;22559;54.176;12.102;2023-04-25T05:21:48;7.50;99.90
36552;DHT22;22559;54.176;12.102;2023-04-25T05:24:14;7.60;99.90
36552;DHT22;22559;54.176;12.102;2023-04-25T05:26:40;7.70;99.90
36552;DHT22;22559;54.176;12.102;2023-04-25T05:29:06;7.70;99.90
36552;DHT22;22559;54.176;12.102;2023-04-25T05:31:32;7.70;99.90
36552;DHT22;22559;54.176;12.102;2023-04-25T05:33:58;7.80;99.90
36552;DHT22;22559;54.176;12.102;2023-04-25T05:36:23;7.70;99.90
36552;DHT22;22559;54.176;12.102;2023-04-25T05:38:49;7.60;99.90
36552;DHT22;22559;54.176;12.102;2023-04-25T05:41:15;7.70;99.90
36552;DHT22;22559;54.176;12.102;2023-04-25T05:43:41;7.80;99.90
36552;DHT22;22559;54.176;12.102;2023-04-25T05:46:12;7.80;99.90
36552;DHT22;22559;54.176;12.102;2023-04-25T05:48:38;7.80;99.90
36552;DHT22;22559;54.176;12.102;2023-04-25T05:51:04;7.80;99.90
36552;DHT22;22559;54.176;12.102;2023-04-25T05:53:30;7.80;99.90
36552;DHT22;22559;54.176;12.102;2023-04-25T05:55:55;7.90;99.90
36552;DHT22;22559;54.176;12.102;2023-04-25T05:58:21;7.90;99.90
36552;DHT22;22559;54.176;12.102;2023-04-25T06:00:47;7.90;99.90
36552;DHT22;22559;54.176;12.102;2023-04-25T06:03:13;7.90;99.90
36552;DHT22;22559;54.176;12.102;2023-04-25T06:05:43;8.00;99.90
36552;DHT22;22559;54.176;12.102;2023-04-25T06:08:09;8.20;99.90
36552;DHT22;22559;54.176;12.102;2023-04-25T06:10:36;8.20;99.90
36552;DHT22;22559;54.176;12.102;2023-04-25T06:13:02;8.30;99.90
36552;DHT22;22559;54.176;12.102;2023-04-25T06:15:27;8.30;99.90
36552;DHT22;22559;54.176;12.102;2023-04-25T06:17:53;8.30;99.90
36552;DHT22;22559;54.176;12.102;2023-04-25T06:20:19;8.30;99.90
36552;DHT22;22559;54.176;12.102;2023-04-25T06:22:48;8.20;99.90
36552;DHT22;22559;54.176;12.102;2023-04-25T06:25:14;8.10;99.90
36552;DHT22;22559;54.176;12.102;2023-04-25T06:27:40;8.00;99.90
36552;DHT22;22559;54.176;12.102;2023-04-25T06:30:06;8.00;99.90
36552;DHT22;22559;54.176;12.102;2023-04-25T06:32:32;8.00;99.90
36552;DHT22;22559;54.176;12.102;2023-04-25T06:34:59;8.00;99.90
36552;DHT22;22559;54.176;12.102;2023-04-25T06:37:25;8.10;99.90
36552;DHT22;22559;54.176;12.102;2023-04-25T06:39:51;8.10;99.90
36552;DHT22;22559;54.176;12.102;2023-04-25T06:42:16;8.10;99.90
36552;DHT22;22559;54.176;12.102;2023-04-25T06:44:42;8.10;99.90
36552;DHT22;22559;54.176;12.102;2023-04-25T06:47:08;8.20;99.90
36552;DHT22;22559;54.176;12.102;2023-04-25T06:49:33;8.20;99.90
36552;DHT22;22559;54.176;12.102;2023-04-25T06:51:59;8.30;99.90
36552;DHT22;22559;54.176;12.102;2023-04-25T06:54:24;8.30;99.90
36552;DHT22;22559;54.176;12.102;2023-04-25T06:56:52;8.30;99.90
36552;DHT22;22559;54.176;12.102;2023-04-25T06:59:18;8.20;99.90
36552;DHT22;22559;54.176;12.102;2023-04-25T07:01:44;8.30;99.90
36552;DHT22;22559;54.176;12.102;2023-04-25T07:04:09;8.30;99.90
36552;DHT22;22559;54.176;12.102;2023-04-25T07:06:35;8.30;99.90
36552;DHT22;22559;54.176;12.102;2023-04-25T07:09:03;8.10;99.90
36552;DHT22;22559;54.176;12.102;2023-04-25T07:11:30;8.10;99.90
36552;DHT22;22559;54.176;12.102;2023-04-25T07:13:55;8.10;99.90
36552;DHT22;22559;54.176;12.102;2023-04-25T07:16:21;8.10;99.90
36552;DHT22;22559;54.176;12.102;2023-04-25T07:18:46;8.10;99.90
36552;DHT22;22559;54.176;12.102;2023-04-25T07:21:12;8.20;99.90
36552;DHT22;22559;54.176;12.102;2023-04-25T07:23:38;8.10;99.90
36552;DHT22;22559;54.176;12.102;2023-04-25T07:26:06;8.10;99.90
36552;DHT22;22559;54.176;12.102;2023-04-25T07:28:32;8.20;99.90
36552;DHT22;22559;54.176;12.102;2023-04-25T07:30:57;8.20;99.90
36552;DHT22;22559;54.176;12.102;2023-04-25T07:33:23;8.30;99.90
36552;DHT22;22559;54.176;12.102;2023-04-25T07:35:49;8.30;99.90
36552;DHT22;22559;54.176;12.102;2023-04-25T07:38:15;8.30;99.90
36552;DHT22;22559;54.176;12.102;2023-04-25T07:40:41;8.40;99.90
36552;DHT22;22559;54.176;12.102;2023-04-25T07:43:07;8.30;99.90
36552;DHT22;22559;54.176;12.102;2023-04-25T07:45:32;8.40;99.90
36552;DHT22;22559;54.176;12.102;2023-04-25T07:47:58;8.40;99.90
36552;DHT22;22559;54.176;12.102;2023-04-25T07:50:24;8.40;99.90
36552;DHT22;22559;54.176;12.102;2023-04-25T07:52:49;8.50;99.90
36552;DHT22;22559;54.176;12.102;2023-04-25T07:55:15;8.50;99.90
36552;DHT22;22559;54.176;12.102;2023-04-25T07:57:41;8.60;99.90
36552;DHT22;22559;54.176;12.102;2023-04-25T08:00:07;8.80;99.90
36552;DHT22;22559;54.176;12.102;2023-04-25T08:02:35;9.00;99.90
36552;DHT22;22559;54.176;12.102;2023-04-25T08:05:02;9.10;99.90
36552;DHT22;22559;54.176;12.102;2023-04-25T08:07:27;9.00;99.90
36552;DHT22;22559;54.176;12.102;2023-04-25T08:09:54;8.90;99.90
36552;DHT22;22559;54.176;12.102;2023-04-25T08:12:19;8.90;99.90
36552;DHT22;22559;54.176;12.102;2023-04-25T08:14:45;8.90;99.90
36552;DHT22;22559;54.176;12.102;2023-04-25T08:17:11;8.90;99.90
36552;DHT22;22559;54.176;12.102;2023-04-25T08:19:36;8.70;99.90
36552;DHT22;22559;54.176;12.102;2023-04-25T08:22:03;8.60;99.90
36552;DHT22;22559;54.176;12.102;2023-04-25T08:24:28;8.60;99.90
36552;DHT22;22559;54.176;12.102;2023-04-25T08:26:54;8.50;99.90
36552;DHT22;22559;54.176;12.102;2023-04-25T08:29:20;8.50;99.90
36552;DHT22;22559;54.176;12.102;2023-04-25T08:31:45;8.40;99.90
36552;DHT22;22559;54.176;12.102;2023-04-25T08:34:11;8.50;99.90
36552;DHT22;22559;54.176;12.102;2023-04-25T08:36:37;8.90;99.90
36552;DHT22;22559;54.176;12.102;2023-04-25T08:39:03;9.70;99.90
36552;DHT22;22559;54.176;12.102;2023-04-25T08:41:28;9.90;99.90
36552;DHT22;22559;54.176;12.102;2023-04-25T08:43:56;9.80;99.90
36552;DHT22;22559;54.176;12.102;2023-04-25T08:46:23;9.70;99.90
36552;DHT22;22559;54.176;12.102;2023-04-25T08:48:49;9.50;99.90
36552;DHT22;22559;54.176;12.102;2023-04-25T08:51:21;9.40;99.90
36552;DHT22;22559;54.176;12.102;2023-04-25T08:53:51;9.50;99.90
36552;DHT22;22559;54.176;12.102;2023-04-25T08:56:17;9.90;99.90
36552;DHT22;22559;54.176;12.102;2023-04-25T08:58:51;10.40;99.90
36552;DHT22;22559;54.176;12.102;2023-04-25T09:01:17;10.30;99.90
36552;DHT22;22559;54.176;12.102;2023-04-25T09:03:44;10.00;99.90
36552;DHT22;22559;54.176;12.102;2023-04-25T09:06:11;9.70;99.90
36552;DHT22;22559;54.176;12.102;2023-04-25T09:08:37;9.60;99.90
36552;DHT22;22559;54.176;12.102;2023-04-25T09:11:03;9.80;99.90
36552;DHT22;22559;54.176;12.102;2023-04-25T09:13:29;10.20;99.90
36552;DHT22;22559;54.176;12.102;2023-04-25T09:15:56;10.30;99.90
36552;DHT22;22559;54.176;12.102;2023-04-25T09:18:30;10.20;99.90
36552;DHT22;22559;54.176;12.102;2023-04-25T09:21:04;10.60;99.90
36552;DHT22;22559;54.176;12.102;2023-04-25T09:23:30;10.70;99.90
36552;DHT22;22559;54.176;12.102;2023-04-25T09:26:03;10.70;99.90
36552;DHT22;22559;54.176;12.102;2023-04-25T09:28:31;10.60;99.90
36552;DHT22;22559;54.176;12.102;2023-04-25T09:30:58;10.70;99.90
36552;DHT22;22559;54.176;12.102;2023-04-25T09:33:33;10.90;99.90
36552;DHT22;22559;54.176;12.102;2023-04-25T09:36:07;10.60;99.90
36552;DHT22;22559;54.176;12.102;2023-04-25T09:38:40;10.20;99.90
36552;DHT22;22559;54.176;12.102;2023-04-25T09:41:10;10.10;99.90
36552;DHT22;22559;54.176;12.102;2023-04-25T09:43:36;10.30;99.90
36552;DHT22;22559;54.176;12.102;2023-04-25T09:46:04;10.20;99.90
36552;DHT22;22559;54.176;12.102;2023-04-25T09:48:33;9.90;99.90
36552;DHT22;22559;54.176;12.102;2023-04-25T09:51:10;9.70;99.90
36552;DHT22;22559;54.176;12.102;2023-04-25T09:53:38;9.80;99.90
36552;DHT22;22559;54.176;12.102;2023-04-25T09:56:06;9.60;99.90
36552;DHT22;22559;54.176;12.102;2023-04-25T09:58:33;9.50;99.90
36552;DHT22;22559;54.176;12.102;2023-04-25T10:01:04;9.40;99.90
36552;DHT22;22559;54.176;12.102;2023-04-25T10:03:32;9.10;99.90
36552;DHT22;22559;54.176;12.102;2023-04-25T10:06:02;9.20;99.90
36552;DHT22;22559;54.176;12.102;2023-04-25T10:08:34;9.10;99.90
36552;DHT22;22559;54.176;12.102;2023-04-25T10:11:02;9.10;99.90
36552;DHT22;22559;54.176;12.102;2023-04-25T10:13:29;9.10;99.90
36552;DHT22;22559;54.176;12.102;2023-04-25T10:15:57;9.10;99.90
36552;DHT22;22559;54.176;12.102;2023-04-25T10:18:25;9.10;99.90
36552;DHT22;22559;54.176;12.102;2023-04-25T10:20:51;10.00;99.90
36552;DHT22;22559;54.176;12.102;2023-04-25T10:23:17;11.00;99.90
36552;DHT22;22559;54.176;12.102;2023-04-25T10:25:43;11.40;99.90
36552;DHT22;22559;54.176;12.102;2023-04-25T10:28:09;11.40;99.90
36552;DHT22;22559;54.176;12.102;2023-04-25T10:30:34;11.10;99.90
36552;DHT22;22559;54.176;12.102;2023-04-25T10:33:00;10.80;99.90
36552;DHT22;22559;54.176;12.102;2023-04-25T10:35:30;10.70;99.90
36552;DHT22;22559;54.176;12.102;2023-04-25T10:38:14;10.60;99.90
36552;DHT22;22559;54.176;12.102;2023-04-25T10:40:39;10.40;99.90
36552;DHT22;22559;54.176;12.102;2023-04-25T10:45:56;10.00;99.90
36552;DHT22;22559;54.176;12.102;2023-04-25T10:48:29;9.90;99.90
36552;DHT22;22559;54.176;12.102;2023-04-25T10:51:08;9.80;99.90
36552;DHT22;22559;54.176;12.102;2023-04-25T10:53:34;9.50;99.90
36552;DHT22;22559;54.176;12.102;2023-04-25T10:56:00;9.40;99.90
36552;DHT22;22559;54.176;12.102;2023-04-25T10:58:26;9.30;99.90
36552;DHT22;22559;54.176;12.102;2023-04-25T11:00:52;9.30;99.90
36552;DHT22;22559;54.176;12.102;2023-04-25T11:03:21;9.30;99.90
36552;DHT22;22559;54.176;12.102;2023-04-25T11:05:48;9.20;99.90
36552;DHT22;22559;54.176;12.102;2023-04-25T11:08:22;9.20;99.90
36552;DHT22;22559;54.176;12.102;2023-04-25T11:10:53;9.20;99.90
36552;DHT22;22559;54.176;12.102;2023-04-25T11:13:20;9.10;99.90
36552;DHT22;22559;54.176;12.102;2023-04-25T11:15:51;9.00;99.90
36552;DHT22;22559;54.176;12.102;2023-04-25T11:18:17;8.90;99.90
36552;DHT22;22559;54.176;12.102;2023-04-25T11:20:44;8.90;99.90
36552;DHT22;22559;54.176;12.102;2023-04-25T11:23:10;8.80;99.90
36552;DHT22;22559;54.176;12.102;2023-04-25T11:25:36;8.90;99.90
36552;DHT22;22559;54.176;12.102;2023-04-25T11:28:02;8.90;99.90
36552;DHT22;22559;54.176;12.102;2023-04-25T11:30:28;8.90;99.90
36552;DHT22;22559;54.176;12.102;2023-04-25T11:32:56;8.90;99.90
36552;DHT22;22559;54.176;12.102;2023-04-25T11:35:22;8.90;99.90
36552;DHT22;22559;54.176;12.102;2023-04-25T11:37:48;9.10;99.90
36552;DHT22;22559;54.176;12.102;2023-04-25T11:40:16;9.20;99.90
36552;DHT22;22559;54.176;12.102;2023-04-25T11:42:46;9.50;99.90
36552;DHT22;22559;54.176;12.102;2023-04-25T11:45:13;9.70;99.90
36552;DHT22;22559;54.176;12.102;2023-04-25T11:47:39;9.90;99.90
36552;DHT22;22559;54.176;12.102;2023-04-25T11:50:07;10.10;99.90
36552;DHT22;22559;54.176;12.102;2023-04-25T11:52:40;10.50;99.90
36552;DHT22;22559;54.176;12.102;2023-04-25T11:55:13;10.80;99.90
36552;DHT22;22559;54.176;12.102;2023-04-25T11:57:40;10.80;99.90
36552;DHT22;22559;54.176;12.102;2023-04-25T12:00:17;11.00;99.90
36552;DHT22;22559;54.176;12.102;2023-04-25T12:02:44;11.10;99.90
36552;DHT22;22559;54.176;12.102;2023-04-25T12:05:11;11.00;99.90
36552;DHT22;22559;54.176;12.102;2023-04-25T12:07:37;10.90;99.90
36552;DHT22;22559;54.176;12.102;2023-04-25T12:10:11;11.00;99.90
36552;DHT22;22559;54.176;12.102;2023-04-25T12:12:41;10.80;99.90
36552;DHT22;22559;54.176;12.102;2023-04-25T12:17:40;11.00;99.90
36552;DHT22;22559;54.176;12.102;2023-04-25T12:20:10;10.80;99.90
36552;DHT22;22559;54.176;12.102;2023-04-25T12:22:36;10.50;99.90
36552;DHT22;22559;54.176;12.102;2023-04-25T12:25:03;10.40;99.90
36552;DHT22;22559;54.176;12.102;2023-04-25T12:27:31;10.20;99.90
36552;DHT22;22559;54.176;12.102;2023-04-25T12:29:57;10.00;99.90
36552;DHT22;22559;54.176;12.102;2023-04-25T12:32:23;9.80;99.90
36552;DHT22;22559;54.176;12.102;2023-04-25T12:34:49;9.60;99.90
36552;DHT22;22559;54.176;12.102;2023-04-25T12:37:15;9.40;99.90
36552;DHT22;22559;54.176;12.102;2023-04-25T12:39:41;9.40;99.90
36552;DHT22;22559;54.176;12.102;2023-04-25T12:42:06;9.40;99.90
36552;DHT22;22559;54.176;12.102;2023-04-25T12:44:37;9.30;99.90
36552;DHT22;22559;54.176;12.102;2023-04-25T12:47:03;9.40;99.90
36552;DHT22;22559;54.176;12.102;2023-04-25T12:49:29;9.70;99.90
36552;DHT22;22559;54.176;12.102;2023-04-25T12:51:55;10.10;99.90
36552;DHT22;22559;54.176;12.102;2023-04-25T12:54:21;10.90;99.90
36552;DHT22;22559;54.176;12.102;2023-04-25T12:56:46;11.50;99.90
36552;DHT22;22559;54.176;12.102;2023-04-25T12:59:12;11.40;99.90
36552;DHT22;22559;54.176;12.102;2023-04-25T13:01:38;11.20;99.90
36552;DHT22;22559;54.176;12.102;2023-04-25T13:04:04;10.70;99.90
36552;DHT22;22559;54.176;12.102;2023-04-25T13:06:29;10.70;99.90
36552;DHT22;22559;54.176;12.102;2023-04-25T13:08:56;10.50;99.90
36552;DHT22;22559;54.176;12.102;2023-04-25T13:11:21;10.50;99.90
36552;DHT22;22559;54.176;12.102;2023-04-25T13:13:47;10.60;99.90
36552;DHT22;22559;54.176;12.102;2023-04-25T13:16:13;10.80;99.90
36552;DHT22;22559;54.176;12.102;2023-04-25T13:18:41;10.80;99.90
36552;DHT22;22559;54.176;12.102;2023-04-25T13:21:09;10.60;99.90
36552;DHT22;22559;54.176;12.102;2023-04-25T13:23:35;10.40;99.90
36552;DHT22;22559;54.176;12.102;2023-04-25T13:26:00;10.10;99.90
36552;DHT22;22559;54.176;12.102;2023-04-25T13:28:27;9.90;99.90
36552;DHT22;22559;54.176;12.102;2023-04-25T13:30:53;9.60;99.90
36552;DHT22;22559;54.176;12.102;2023-04-25T13:33:19;9.60;99.90
36552;DHT22;22559;54.176;12.102;2023-04-25T13:35:47;9.50;99.90
36552;DHT22;22559;54.176;12.102;2023-04-25T13:38:21;9.50;99.90
36552;DHT22;22559;54.176;12.102;2023-04-25T13:40:48;9.40;99.90
36552;DHT22;22559;54.176;12.102;2023-04-25T13:43:14;9.40;99.90
36552;DHT22;22559;54.176;12.102;2023-04-25T13:45:39;9.30;99.90
36552;DHT22;22559;54.176;12.102;2023-04-25T13:48:05;9.20;99.90
36552;DHT22;22559;54.176;12.102;2023-04-25T13:50:31;9.30;99.90
36552;DHT22;22559;54.176;12.102;2023-04-25T13:52:57;9.40;99.90
36552;DHT22;22559;54.176;12.102;2023-04-25T13:55:23;9.40;99.90
36552;DHT22;22559;54.176;12.102;2023-04-25T13:57:48;9.40;99.90
36552;DHT22;22559;54.176;12.102;2023-04-25T14:00:15;9.60;99.90
36552;DHT22;22559;54.176;12.102;2023-04-25T14:02:40;9.50;99.90
36552;DHT22;22559;54.176;12.102;2023-04-25T14:05:06;9.40;99.90
36552;DHT22;22559;54.176;12.102;2023-04-25T14:07:36;9.20;99.90
36552;DHT22;22559;54.176;12.102;2023-04-25T14:10:02;9.00;99.90
36552;DHT22;22559;54.176;12.102;2023-04-25T14:12:29;9.00;99.90
36552;DHT22;22559;54.176;12.102;2023-04-25T14:14:55;9.00;99.90
36552;DHT22;22559;54.176;12.102;2023-04-25T14:17:20;9.00;99.90
36552;DHT22;22559;54.176;12.102;2023-04-25T14:19:46;9.10;99.90
36552;DHT22;22559;54.176;12.102;2023-04-25T14:22:14;9.20;99.90
36552;DHT22;22559;54.176;12.102;2023-04-25T14:24:40;9.40;99.90
36552;DHT22;22559;54.176;12.102;2023-04-25T14:27:06;9.60;99.90
36552;DHT22;22559;54.176;12.102;2023-04-25T14:29:32;10.00;99.90
36552;DHT22;22559;54.176;12.102;2023-04-25T14:31:57;10.30;99.90
36552;DHT22;22559;54.176;12.102;2023-04-25T14:34:24;10.30;99.90
36552;DHT22;22559;54.176;12.102;2023-04-25T14:36:52;10.20;99.90
36552;DHT22;22559;54.176;12.102;2023-04-25T14:39:18;10.20;99.90
36552;DHT22;22559;54.176;12.102;2023-04-25T14:41:44;10.40;99.90
36552;DHT22;22559;54.176;12.102;2023-04-25T14:44:09;10.60;99.90
36552;DHT22;22559;54.176;12.102;2023-04-25T14:46:36;10.50;99.90
36552;DHT22;22559;54.176;12.102;2023-04-25T14:49:02;10.10;99.90
36552;DHT22;22559;54.176;12.102;2023-04-25T14:51:28;9.70;99.90
36552;DHT22;22559;54.176;12.102;2023-04-25T14:53:54;9.50;99.90
36552;DHT22;22559;54.176;12.102;2023-04-25T14:56:20;9.30;99.90
36552;DHT22;22559;54.176;12.102;2023-04-25T14:58:46;9.20;99.90
36552;DHT22;22559;54.176;12.102;2023-04-25T15:01:12;9.20;99.90
36552;DHT22;22559;54.176;12.102;2023-04-25T15:03:42;9.20;99.90
36552;DHT22;22559;54.176;12.102;2023-04-25T15:06:07;9.20;99.90
36552;DHT22;22559;54.176;12.102;2023-04-25T15:08:33;9.30;99.90
36552;DHT22;22559;54.176;12.102;2023-04-25T15:10:59;9.30;99.90
36552;DHT22;22559;54.176;12.102;2023-04-25T15:13:26;9.10;99.90
36552;DHT22;22559;54.176;12.102;2023-04-25T15:15:52;9.00;99.90
36552;DHT22;22559;54.176;12.102;2023-04-25T15:18:20;9.00;99.90
36552;DHT22;22559;54.176;12.102;2023-04-25T15:20:52;9.60;99.90
36552;DHT22;22559;54.176;12.102;2023-04-25T15:23:19;10.30;99.90
36552;DHT22;22559;54.176;12.102;2023-04-25T15:25:45;10.70;99.90
36552;DHT22;22559;54.176;12.102;2023-04-25T15:28:11;11.10;99.90
36552;DHT22;22559;54.176;12.102;2023-04-25T15:30:40;11.30;99.90
36552;DHT22;22559;54.176;12.102;2023-04-25T15:33:06;11.50;99.90
36552;DHT22;22559;54.176;12.102;2023-04-25T15:35:31;11.60;99.90